Historyczne dane pomiarowe

Dodano dane terminowe – wersja testowa.

Dane z okresu 1951-2019

Wersja bazy: 1.34 [2019-03-16, lista zmian], aktualizacja planowana na 2019-04-15

Dane meteo z obszaru Polski uzyskane na podstawie danych udostępnionych przez Instytut Meteorologii i Gospodarki Wodnej – Państwowy Instytut Badawczy.

 

Wybierz Datę:    

       

TemperaturaWilgotnośćZachmurzenieWiatrCiśnienieWidzialnośćZjawiska
 Data    tng td wb rh cc ccl cl cm ch dir g1 g2 mslp ppp      
1999-07-16 00:00:00 11.5--- 10.6 11.094wxwxwx2wx--1016.1 991.3 0.0---wx
1999-07-16 01:00:00 10.9--- 10.2 10.595wxwxwx2wx--1016.3 991.5----wx
1999-07-16 02:00:00 10.5--- 9.8 10.195wxwxwx3wx--1016.5 991.6----wx
1999-07-16 03:00:00 10.3--- 9.6 9.995wxwxwx0wx--1017.1 992.2----wx
1999-07-16 04:00:00 10.9--- 10.4 10.696wxwxwx0wx--1017.3 992.4----wx
1999-07-16 05:00:00 12.6--- 11.0 11.790wxwxwx1wx--1017.3 992.6----wx
1999-07-16 06:00:00 14.4--- 13.4 13.894wxwxwx1wx--1017.5 992.9 0.0---wx
1999-07-16 07:00:00 15.4--- 11.2 13.076wxwxwx1wx--1017.5 993.0----wx
1999-07-16 08:00:00 17.0--- 11.1 13.668wxwxwxwx1wx--1017.3 993.0----wx
1999-07-16 09:00:00 18.8--- 12.1 14.865wxwxwx2wx--1017.4 993.2----wx
1999-07-16 10:00:00 19.6--- 9.8 14.053wxwxwx2wx--1017.4 993.3----wx
1999-07-16 11:00:00 20.2--- 10.6 14.654wxwxwx3wx--1017.3 993.2----wx
1999-07-16 12:00:00 21.8--- 9.2 14.645wxwxwx3wx--1017.2 993.3 0.0---wx
1999-07-16 13:00:00 22.2--- 10.2 15.247wxwxwx2wx--1017.2 993.3----wx
1999-07-16 14:00:00 21.6--- 10.3 15.048wxwxwx3wx--1017.3 993.3----wx
1999-07-16 15:00:00 20.6--- 11.1 15.054wxwxwxwx3wx--1017.4 993.4----wx
1999-07-16 16:00:00 19.8--- 11.7 15.060wxwxwxwx3wx--1017.9 993.8----wx
1999-07-16 17:00:00 18.6--- 12.8 15.169wxwxwxwx3wx--1018.2 994.0----wx
1999-07-16 18:00:00 18.8--- 13.4 15.571wxwxwxwxwx2wx--1018.6 994.4 0.0---wx
1999-07-16 19:00:00 15.8--- 11.5 13.376wxwxwxwx0wx--1019.4 994.9----wx
1999-07-16 20:00:00 13.3--- 10.8 11.985wxwxwxwx1wx--1020.0 995.3----wx
1999-07-16 21:00:00 12.5--- 10.5 11.488wxwxwx2wx--1020.4 995.6----wx
1999-07-16 22:00:00 11.8--- 10.4 11.091wxwx3wx--1020.7 995.8----wx
1999-07-16 23:00:00 12.1--- 11.0 11.593wxwxwxwx1wx--1020.9 996.1----wx

 

Źródłem pochodzenia danych jest Instytut Meteorologii i Gospodarki Wodnej – Państwowy Instytut Badawczy. Dane Instytutu Meteorologii i Gospodarki Wodnej – Państwowego Instytutu Badawczego zostały przetworzone.

Dane źródłowe można odnaleźć na stronie https://dane.imgw.pl